createdAt,value
2022-08-02T00:01:19.489Z,2.40
2022-08-02T00:03:46.720Z,2.97
2022-08-02T00:06:14.920Z,4.13
2022-08-02T00:08:41.797Z,2.42
2022-08-02T00:11:08.857Z,2.63
2022-08-02T00:13:35.765Z,2.45
2022-08-02T00:16:02.624Z,2.50
2022-08-02T00:18:29.809Z,2.13
2022-08-02T00:20:56.668Z,2.70
2022-08-02T00:23:24.952Z,2.35
2022-08-02T00:25:55.515Z,2.20
2022-08-02T00:28:27.937Z,2.33
2022-08-02T00:30:56.849Z,2.80
2022-08-02T00:34:27.246Z,2.40
2022-08-02T00:38:39.409Z,2.67
2022-08-02T00:41:13.432Z,2.40
2022-08-02T00:43:40.935Z,3.20
2022-08-02T00:46:08.008Z,3.08
2022-08-02T00:48:35.300Z,2.88
2022-08-02T00:51:05.576Z,3.10
2022-08-02T00:53:32.715Z,3.38
2022-08-02T00:56:01.430Z,2.60
2022-08-02T00:58:28.436Z,3.13
2022-08-02T01:00:57.678Z,2.58
2022-08-02T01:03:24.844Z,2.90
2022-08-02T01:06:10.205Z,2.45
2022-08-02T01:08:38.973Z,3.15
2022-08-02T01:11:07.500Z,2.88
2022-08-02T01:13:34.555Z,2.80
2022-08-02T01:16:10.002Z,2.67
2022-08-02T01:18:42.232Z,2.83
2022-08-02T01:21:23.609Z,2.65
2022-08-02T01:24:00.800Z,3.40
2022-08-02T01:26:39.385Z,2.58
2022-08-02T01:29:13.600Z,2.78
2022-08-02T01:31:44.800Z,2.08
2022-08-02T01:34:16.973Z,2.50
2022-08-02T01:36:48.389Z,2.47
2022-08-02T01:39:27.464Z,2.75
2022-08-02T01:42:01.425Z,2.60
2022-08-02T01:44:35.009Z,3.13
2022-08-02T01:47:05.605Z,2.97
2022-08-02T01:49:34.686Z,2.70
2022-08-02T01:52:22.287Z,3.67
2022-08-02T01:54:52.395Z,2.67
2022-08-02T01:57:23.231Z,2.70
2022-08-02T01:59:55.073Z,2.85
2022-08-02T02:02:24.033Z,2.78
2022-08-02T02:04:52.933Z,3.13
2022-08-02T02:07:21.173Z,3.33
2022-08-02T02:09:51.084Z,2.95
2022-08-02T02:12:20.103Z,3.13
2022-08-02T02:18:11.799Z,3.65
2022-08-02T02:20:13.127Z,3.35
2022-08-02T02:22:40.461Z,3.55
2022-08-02T02:25:08.781Z,3.67
2022-08-02T02:27:42.641Z,3.40
2022-08-02T02:30:12.626Z,3.22
2022-08-02T02:32:41.855Z,3.30
2022-08-02T02:35:10.772Z,3.40
2022-08-02T02:37:38.886Z,3.25
2022-08-02T02:40:09.081Z,3.10
2022-08-02T02:42:35.993Z,3.13
2022-08-02T02:45:04.522Z,3.03
2022-08-02T02:47:40.878Z,3.35
2022-08-02T02:50:11.923Z,3.20
2022-08-02T02:52:40.277Z,3.30
2022-08-02T02:55:10.248Z,3.00
2022-08-02T02:57:38.700Z,2.83
2022-08-02T03:00:07.366Z,3.10
2022-08-02T03:02:36.426Z,3.10
2022-08-02T03:05:05.105Z,3.30
2022-08-02T03:07:34.597Z,3.10
2022-08-02T03:10:02.990Z,3.28
2022-08-02T03:12:32.272Z,2.80
2022-08-02T03:15:01.295Z,3.13
2022-08-02T03:17:37.880Z,3.08
2022-08-02T03:20:09.501Z,3.00
2022-08-02T03:22:38.109Z,2.97
2022-08-02T03:25:05.757Z,3.17
2022-08-02T03:27:32.608Z,3.00
2022-08-02T03:29:59.516Z,2.33
2022-08-02T03:32:26.555Z,2.70
2022-08-02T03:34:53.705Z,4.40
2022-08-02T03:37:21.730Z,2.55
2022-08-02T03:39:53.066Z,2.60
2022-08-02T03:42:20.924Z,2.60
2022-08-02T03:44:49.060Z,2.70
2022-08-02T03:47:17.393Z,2.50
2022-08-02T03:49:44.672Z,2.50
2022-08-02T03:52:11.947Z,2.65
2022-08-02T03:54:45.154Z,2.70
2022-08-02T03:57:14.514Z,2.53
2022-08-02T03:59:42.263Z,2.55
2022-08-02T04:02:09.394Z,2.85
2022-08-02T04:04:36.868Z,2.10
2022-08-02T04:07:07.263Z,2.70
2022-08-02T04:09:34.680Z,2.50
2022-08-02T04:12:01.520Z,2.08
2022-08-02T04:14:30.367Z,2.88
2022-08-02T04:17:07.521Z,2.10
2022-08-02T04:19:39.068Z,2.08
2022-08-02T04:22:09.668Z,2.25
2022-08-02T04:24:41.958Z,1.92
2022-08-02T04:27:50.072Z,2.28
2022-08-02T04:30:00.311Z,2.10
2022-08-02T04:32:27.924Z,2.13
2022-08-02T04:35:18.112Z,2.50
2022-08-02T04:38:08.693Z,2.25
2022-08-02T04:40:29.687Z,2.53
2022-08-02T04:42:56.760Z,2.28
2022-08-02T04:45:25.687Z,2.08
2022-08-02T04:48:02.280Z,2.10
2022-08-02T04:50:30.985Z,2.63
2022-08-02T04:52:57.859Z,2.08
2022-08-02T04:55:28.769Z,1.55
2022-08-02T04:57:57.531Z,2.15
2022-08-02T05:00:27.358Z,1.95
2022-08-02T05:02:55.839Z,2.05
2022-08-02T05:05:22.894Z,1.90
2022-08-02T05:07:49.799Z,1.90
2022-08-02T05:10:16.791Z,2.00
2022-08-02T05:12:43.725Z,1.92
2022-08-02T05:15:13.669Z,2.60
2022-08-02T05:17:47.442Z,1.80
2022-08-02T05:20:16.059Z,2.10
2022-08-02T05:22:43.108Z,1.98
2022-08-02T05:25:10.489Z,1.67
2022-08-02T05:27:37.379Z,1.80
2022-08-02T05:30:05.423Z,2.25
2022-08-02T05:32:32.367Z,1.85
2022-08-02T05:35:02.119Z,1.98
2022-08-02T05:37:32.020Z,1.65
2022-08-02T05:40:01.141Z,1.83
2022-08-02T05:42:31.136Z,2.30
2022-08-02T05:44:58.160Z,1.80
2022-08-02T05:47:26.084Z,2.30
2022-08-02T05:49:53.398Z,2.35
2022-08-02T05:52:26.378Z,1.65
2022-08-02T05:55:05.508Z,1.88
2022-08-02T05:57:43.289Z,1.77
2022-08-02T06:00:13.497Z,1.42
2022-08-02T06:03:00.597Z,1.77
2022-08-02T06:05:32.277Z,1.80
2022-08-02T06:08:04.662Z,1.73
2022-08-02T06:10:36.843Z,1.77
2022-08-02T06:13:08.921Z,2.15
2022-08-02T06:15:38.946Z,1.65
2022-08-02T06:18:28.478Z,1.58
2022-08-02T06:20:57.993Z,1.90
2022-08-02T06:23:29.437Z,1.45
2022-08-02T06:25:57.101Z,1.50
2022-08-02T06:28:25.072Z,1.70
2022-08-02T06:30:52.012Z,1.60
2022-08-02T06:33:19.046Z,1.70
2022-08-02T06:35:53.147Z,1.67
2022-08-02T06:38:25.332Z,1.60
2022-08-02T06:41:01.206Z,1.70
2022-08-02T06:43:35.131Z,1.75
2022-08-02T06:46:57.306Z,1.40
2022-08-02T06:48:56.782Z,1.60
2022-08-02T06:51:23.789Z,2.28
2022-08-02T06:53:50.949Z,1.92
2022-08-02T06:56:20.214Z,2.05
2022-08-02T06:58:47.181Z,1.88
2022-08-02T07:01:14.393Z,1.75
2022-08-02T07:03:41.767Z,1.80
2022-08-02T07:06:11.705Z,2.08
2022-08-02T07:08:39.633Z,2.10
2022-08-02T07:11:07.416Z,2.65
2022-08-02T07:13:39.690Z,1.92
2022-08-02T07:16:07.659Z,2.42
2022-08-02T07:18:34.874Z,2.40
2022-08-02T07:21:05.429Z,2.53
2022-08-02T07:23:35.594Z,2.60
2022-08-02T07:26:05.400Z,2.60
2022-08-02T07:28:32.786Z,2.80
2022-08-02T07:31:01.240Z,3.10
2022-08-02T07:33:38.119Z,3.08
2022-08-02T07:36:08.904Z,3.65
2022-08-02T07:38:37.581Z,3.63
2022-08-02T07:41:05.022Z,3.83
2022-08-02T07:43:32.052Z,3.95
2022-08-02T07:46:03.094Z,3.28
2022-08-02T07:48:29.940Z,3.78
2022-08-02T07:50:57.403Z,3.30
2022-08-02T07:53:49.864Z,3.90
2022-08-02T07:56:12.325Z,3.67
2022-08-02T07:58:41.227Z,4.00
2022-08-02T08:01:09.560Z,3.55
2022-08-02T08:03:36.589Z,3.65
2022-08-02T08:06:03.532Z,3.60
2022-08-02T08:08:30.400Z,3.22
2022-08-02T08:10:57.241Z,3.50
2022-08-02T08:13:24.254Z,3.35
2022-08-02T08:15:52.593Z,3.55
2022-08-02T08:18:21.544Z,3.72
2022-08-02T08:20:48.381Z,4.88
2022-08-02T08:23:15.206Z,4.35
2022-08-02T08:25:44.255Z,4.60
2022-08-02T08:28:12.373Z,4.68
2022-08-02T08:30:40.678Z,4.75
2022-08-02T08:33:07.837Z,4.50
2022-08-02T08:35:36.151Z,4.55
2022-08-02T08:38:07.229Z,4.57
2022-08-02T08:40:35.046Z,4.20
2022-08-02T08:43:01.995Z,4.13
2022-08-02T08:45:29.257Z,4.45
2022-08-02T08:48:01.376Z,4.35
2022-08-02T08:50:32.720Z,4.60
2022-08-02T08:53:04.836Z,4.28
2022-08-02T08:55:33.283Z,4.82
2022-08-02T08:58:01.101Z,4.95
2022-08-02T09:00:30.792Z,4.85
2022-08-02T09:02:57.677Z,5.18
2022-08-02T09:05:25.521Z,4.63
2022-08-02T09:07:53.525Z,4.13
2022-08-02T09:10:48.482Z,3.60
2022-08-02T09:13:43.514Z,3.70
2022-08-02T09:16:12.992Z,4.30
2022-08-02T09:18:44.325Z,4.28
2022-08-02T09:21:12.145Z,5.13
2022-08-02T09:23:40.833Z,4.63
2022-08-02T09:26:10.574Z,4.70
2022-08-02T09:28:39.452Z,4.88
2022-08-02T09:31:08.707Z,4.80
2022-08-02T09:33:36.621Z,5.25
2022-08-02T09:36:08.173Z,4.93
2022-08-02T09:38:37.101Z,4.65
2022-08-02T09:41:05.426Z,4.35
2022-08-02T09:43:52.409Z,4.70
2022-08-02T09:46:36.308Z,4.68
2022-08-02T09:49:06.103Z,4.40
2022-08-02T09:51:35.113Z,5.50
2022-08-02T09:56:44.567Z,4.05
2022-08-02T09:59:14.212Z,4.40
2022-08-02T10:01:50.720Z,4.45
2022-08-02T10:04:28.627Z,4.80
2022-08-02T10:06:56.120Z,4.93
2022-08-02T10:09:23.384Z,4.57
2022-08-02T10:11:51.973Z,4.88
2022-08-02T10:14:21.330Z,4.30
2022-08-02T10:16:48.498Z,4.70
2022-08-02T10:19:16.398Z,5.07
2022-08-02T10:21:47.020Z,4.00
2022-08-02T10:24:16.836Z,4.68
2022-08-02T10:26:45.612Z,4.28
2022-08-02T10:29:16.926Z,3.42
2022-08-02T10:31:55.700Z,3.20
2022-08-02T10:34:31.598Z,2.90
2022-08-02T10:37:02.930Z,3.30
2022-08-02T10:39:38.826Z,3.10
2022-08-02T10:42:05.982Z,4.07
2022-08-02T10:44:34.540Z,3.92
2022-08-02T10:47:23.969Z,4.05
2022-08-02T10:49:53.365Z,4.87
2022-08-02T10:52:21.293Z,4.75
2022-08-02T10:54:56.418Z,4.97
2022-08-02T10:57:25.591Z,5.85
2022-08-02T10:59:56.091Z,5.95
2022-08-02T11:02:42.456Z,6.20
2022-08-02T11:05:15.661Z,5.10
2022-08-02T11:07:47.615Z,5.60
2022-08-02T11:10:32.437Z,5.70
2022-08-02T11:13:01.697Z,5.30
2022-08-02T11:15:29.396Z,5.35
2022-08-02T11:18:01.478Z,5.10
2022-08-02T11:20:28.627Z,5.13
2022-08-02T11:23:15.843Z,4.40
2022-08-02T11:26:03.326Z,4.68
2022-08-02T11:28:30.214Z,4.60
2022-08-02T11:30:58.939Z,4.30
2022-08-02T11:33:32.347Z,4.85
2022-08-02T11:36:04.855Z,5.10
2022-08-02T11:38:32.053Z,4.40
2022-08-02T11:41:00.019Z,4.38
2022-08-02T11:43:33.841Z,4.43
2022-08-02T11:46:03.410Z,4.53
2022-08-02T11:48:33.300Z,4.90
2022-08-02T11:51:08.132Z,4.45
2022-08-02T11:56:08.662Z,3.85
2022-08-02T11:58:35.572Z,4.32
2022-08-02T12:01:06.122Z,4.22
2022-08-02T12:03:38.535Z,4.20
2022-08-02T12:06:16.452Z,3.90
2022-08-02T12:08:43.733Z,3.50
2022-08-02T12:11:21.656Z,4.13
2022-08-02T12:13:57.111Z,4.00
2022-08-02T12:16:43.387Z,4.45
2022-08-02T12:19:20.159Z,3.47
2022-08-02T12:21:47.737Z,2.75
2022-08-02T12:24:26.951Z,2.60
2022-08-02T12:26:54.000Z,2.70
2022-08-02T12:29:57.837Z,2.35
2022-08-02T12:32:24.824Z,2.35
2022-08-02T12:35:04.955Z,2.22
2022-08-02T12:37:32.096Z,2.72
2022-08-02T12:39:58.964Z,2.88
2022-08-02T12:42:25.825Z,2.45
2022-08-02T12:44:55.133Z,2.15
2022-08-02T12:47:22.252Z,2.20
2022-08-02T12:50:15.971Z,2.67
2022-08-02T12:52:43.133Z,1.85
2022-08-02T12:55:22.571Z,1.67
2022-08-02T12:57:54.519Z,1.70
2022-08-02T13:00:26.032Z,2.00
2022-08-02T13:02:53.262Z,1.70
2022-08-02T13:05:22.101Z,2.00
2022-08-02T13:10:16.101Z,1.98
2022-08-02T13:12:43.168Z,1.83
2022-08-02T13:15:12.404Z,2.40
2022-08-02T13:17:59.194Z,1.92
2022-08-02T13:20:28.227Z,2.00
2022-08-02T13:22:56.704Z,2.00
2022-08-02T13:25:31.373Z,1.70
2022-08-02T13:27:58.161Z,2.10
2022-08-02T13:30:25.244Z,1.85
2022-08-02T13:32:52.139Z,1.80
2022-08-02T13:35:19.067Z,2.00
2022-08-02T13:37:48.266Z,2.00
2022-08-02T13:40:23.102Z,2.40
2022-08-02T13:42:50.385Z,2.42
2022-08-02T13:45:17.397Z,2.20
2022-08-02T13:48:04.825Z,2.22
2022-08-02T13:50:32.055Z,3.08
2022-08-02T13:53:00.331Z,3.03
2022-08-02T13:55:28.237Z,2.45
2022-08-02T13:57:55.250Z,2.17
2022-08-02T14:00:35.810Z,1.92
2022-08-02T14:03:04.798Z,2.33
2022-08-02T14:05:39.228Z,2.67
2022-08-02T14:08:17.107Z,2.35
2022-08-02T14:10:44.431Z,2.60
2022-08-02T14:13:11.230Z,2.53
2022-08-02T14:15:38.132Z,2.30
2022-08-02T14:18:05.325Z,2.83
2022-08-02T14:20:32.298Z,2.13
2022-08-02T14:22:59.096Z,2.20
2022-08-02T14:25:27.368Z,2.45
2022-08-02T14:27:54.437Z,2.63
2022-08-02T14:30:23.309Z,2.60
2022-08-02T14:32:50.341Z,2.70
2022-08-02T14:35:17.250Z,2.45
2022-08-02T14:37:44.421Z,2.67
2022-08-02T14:40:28.146Z,2.83
2022-08-02T14:43:00.290Z,2.60
2022-08-02T14:45:36.978Z,2.75
2022-08-02T14:48:09.574Z,2.58
2022-08-02T14:50:36.444Z,2.97
2022-08-02T14:53:03.262Z,2.17
2022-08-02T14:55:30.048Z,2.30
2022-08-02T14:57:56.891Z,2.13
2022-08-02T15:00:25.191Z,2.30
2022-08-02T15:02:52.045Z,2.05
2022-08-02T15:05:19.083Z,2.08
2022-08-02T15:07:49.535Z,2.15
2022-08-02T15:10:16.725Z,2.20
2022-08-02T15:12:45.817Z,2.00
2022-08-02T15:15:12.695Z,1.80
2022-08-02T15:17:41.027Z,2.13
2022-08-02T15:20:24.633Z,2.05
2022-08-02T15:22:52.724Z,2.15
2022-08-02T15:25:19.693Z,1.90
2022-08-02T15:27:46.578Z,2.30
2022-08-02T15:30:14.211Z,1.92
2022-08-02T15:32:53.155Z,2.28
2022-08-02T15:35:20.733Z,1.80
2022-08-02T15:37:47.543Z,2.78
2022-08-02T15:40:14.288Z,2.00
2022-08-02T15:42:41.165Z,2.22
2022-08-02T15:45:15.372Z,2.08
2022-08-02T15:47:48.263Z,1.67
2022-08-02T15:50:17.939Z,2.10
2022-08-02T15:52:44.750Z,1.92
2022-08-02T15:55:11.513Z,2.20
2022-08-02T15:57:38.459Z,1.70
2022-08-02T16:00:07.359Z,1.63
2022-08-02T16:02:47.659Z,1.83
2022-08-02T16:05:18.216Z,1.73
2022-08-02T16:07:45.481Z,1.63
2022-08-02T16:10:12.375Z,1.70
2022-08-02T16:12:39.396Z,2.05
2022-08-02T16:15:07.693Z,1.90
2022-08-02T16:17:51.407Z,2.10
2022-08-02T16:20:23.109Z,1.65
2022-08-02T16:22:50.122Z,1.50
2022-08-02T16:25:17.457Z,1.70
2022-08-02T16:28:06.533Z,1.70
2022-08-02T16:30:31.477Z,1.88
2022-08-02T16:32:58.317Z,2.30
2022-08-02T16:35:28.339Z,1.88
2022-08-02T16:37:55.256Z,1.70
2022-08-02T16:40:22.396Z,1.90
2022-08-02T16:42:50.854Z,2.20
2022-08-02T16:45:19.971Z,1.50
2022-08-02T16:50:28.963Z,1.75
2022-08-02T16:52:57.153Z,1.80
2022-08-02T16:55:25.025Z,1.90
2022-08-02T16:57:52.004Z,1.50
2022-08-02T17:00:23.905Z,1.45
2022-08-02T17:02:50.752Z,1.77
2022-08-02T17:05:17.615Z,2.30
2022-08-02T17:08:07.695Z,1.90
2022-08-02T17:10:34.377Z,1.98
2022-08-02T17:13:11.319Z,1.85
2022-08-02T17:16:15.901Z,1.80
2022-08-02T17:18:26.741Z,1.85
2022-08-02T17:20:53.817Z,1.77
2022-08-02T17:23:22.138Z,1.40
2022-08-02T17:25:52.523Z,1.95
2022-08-02T17:28:19.933Z,1.77
2022-08-02T17:30:46.755Z,2.10
2022-08-02T17:33:13.910Z,2.20
2022-08-02T17:35:52.508Z,2.38
2022-08-02T17:38:26.134Z,1.98
2022-08-02T17:40:54.904Z,2.55
2022-08-02T17:43:22.009Z,2.15
2022-08-02T17:46:00.977Z,2.05
2022-08-02T17:48:49.376Z,2.05
2022-08-02T17:52:15.561Z,1.95
2022-08-02T17:54:05.482Z,1.92
2022-08-02T17:56:33.382Z,2.40
2022-08-02T17:59:10.593Z,1.63
2022-08-02T18:01:42.116Z,1.83
2022-08-02T18:04:20.578Z,1.80
2022-08-02T18:06:57.519Z,1.80
2022-08-02T18:09:26.398Z,1.83
2022-08-02T18:11:53.828Z,2.20
2022-08-02T18:14:20.851Z,1.70
2022-08-02T18:16:48.774Z,2.00
2022-08-02T18:19:17.394Z,2.00
2022-08-02T18:21:45.679Z,2.03
2022-08-02T18:24:12.827Z,1.70
2022-08-02T18:26:43.901Z,1.98
2022-08-02T18:29:12.270Z,2.60
2022-08-02T18:31:40.183Z,2.25
2022-08-02T18:34:18.081Z,1.75
2022-08-02T18:36:50.806Z,1.90
2022-08-02T18:39:17.659Z,2.30
2022-08-02T18:41:47.764Z,1.90
2022-08-02T18:44:15.876Z,2.20
2022-08-02T18:46:43.576Z,1.83
2022-08-02T18:49:15.102Z,2.80
2022-08-02T18:51:43.159Z,1.90
2022-08-02T18:54:10.178Z,2.50
2022-08-02T18:56:38.857Z,2.58
2022-08-02T19:01:54.235Z,3.08
2022-08-02T19:04:27.200Z,2.63
2022-08-02T19:06:56.281Z,2.80
2022-08-02T19:09:23.980Z,3.08
2022-08-02T19:11:51.048Z,3.42
2022-08-02T19:14:27.500Z,3.13
2022-08-02T19:16:56.402Z,2.90
2022-08-02T19:19:23.307Z,3.17
2022-08-02T19:22:16.413Z,3.22
2022-08-02T19:24:44.429Z,2.92
2022-08-02T19:27:13.814Z,3.47
2022-08-02T19:29:49.100Z,2.58
2022-08-02T19:32:41.502Z,2.63
2022-08-02T19:35:24.166Z,2.33
2022-08-02T19:37:59.242Z,2.72
2022-08-02T19:44:26.242Z,4.05
2022-08-02T19:46:03.987Z,2.65
2022-08-02T19:48:30.901Z,2.78
2022-08-02T19:51:00.529Z,2.60
2022-08-02T19:53:47.230Z,2.53
2022-08-02T19:56:25.309Z,3.38
2022-08-02T19:58:54.404Z,3.17
2022-08-02T20:01:36.715Z,3.42
2022-08-02T20:04:12.839Z,2.63
2022-08-02T20:06:45.528Z,2.55
2022-08-02T20:09:13.804Z,2.70
2022-08-02T20:12:00.810Z,3.30
2022-08-02T20:17:16.114Z,2.88
2022-08-02T20:19:46.369Z,2.92
2022-08-02T20:22:14.084Z,3.75
2022-08-02T20:24:41.398Z,3.22
2022-08-02T20:27:08.296Z,2.78
2022-08-02T20:29:44.989Z,3.22
2022-08-02T20:32:22.731Z,3.25
2022-08-02T20:34:50.598Z,3.33
2022-08-02T20:38:01.317Z,3.72
2022-08-02T20:42:31.865Z,3.85
2022-08-02T20:45:00.083Z,3.90
2022-08-02T20:47:39.176Z,3.80
2022-08-02T20:50:33.722Z,4.03
2022-08-02T20:53:01.349Z,3.72
2022-08-02T20:55:31.218Z,3.70
2022-08-02T20:58:00.888Z,3.72
2022-08-02T21:00:48.873Z,3.55
2022-08-02T21:03:19.649Z,3.80
2022-08-02T21:05:55.922Z,3.42
2022-08-02T21:08:24.222Z,4.15
2022-08-02T21:10:52.156Z,3.95
2022-08-02T21:13:46.765Z,3.60
2022-08-02T21:16:18.292Z,3.40
2022-08-02T21:18:48.743Z,3.13
2022-08-02T21:21:16.801Z,3.17
2022-08-02T21:23:48.501Z,3.60
2022-08-02T21:26:19.708Z,3.70
2022-08-02T21:28:52.962Z,4.20
2022-08-02T21:31:19.831Z,3.40
2022-08-02T21:33:58.221Z,3.78
2022-08-02T21:36:30.501Z,4.75
2022-08-02T21:38:58.416Z,3.70
2022-08-02T21:44:12.413Z,3.25
2022-08-02T21:46:39.305Z,3.10
2022-08-02T21:49:11.489Z,3.20
2022-08-02T21:51:39.468Z,3.47
2022-08-02T21:54:17.836Z,3.70
2022-08-02T21:56:46.020Z,3.30
2022-08-02T22:01:53.205Z,3.28
2022-08-02T22:04:22.101Z,3.30
2022-08-02T22:06:49.441Z,3.22
2022-08-02T22:09:17.883Z,3.53
2022-08-02T22:12:04.237Z,3.20
2022-08-02T22:14:33.812Z,3.65
2022-08-02T22:17:00.742Z,2.90
2022-08-02T22:19:37.558Z,3.58
2022-08-02T22:22:04.455Z,3.10
2022-08-02T22:24:31.627Z,3.05
2022-08-02T22:26:58.657Z,2.53
2022-08-02T22:29:26.296Z,2.65
2022-08-02T22:31:53.134Z,3.30
2022-08-02T22:34:37.055Z,2.83
2022-08-02T22:37:08.720Z,2.88
2022-08-02T22:40:08.434Z,3.42
2022-08-02T22:42:36.591Z,3.03
2022-08-02T22:45:09.302Z,3.67
2022-08-02T22:47:38.620Z,3.20
2022-08-02T22:50:12.590Z,2.92
2022-08-02T22:52:41.808Z,2.92
2022-08-02T22:55:14.154Z,3.10
2022-08-02T22:57:56.401Z,2.63
2022-08-02T22:58:52.678Z,2.72
2022-08-02T22:59:00.320Z,2.10
2022-08-02T22:59:07.211Z,3.20
2022-08-02T23:00:24.172Z,3.50
2022-08-02T23:02:51.158Z,3.15
2022-08-02T23:05:18.657Z,3.47
2022-08-02T23:07:46.868Z,3.50
2022-08-02T23:10:13.996Z,2.88
2022-08-02T23:12:40.895Z,3.30
2022-08-02T23:15:09.351Z,3.28
2022-08-02T23:17:54.769Z,3.55
2022-08-02T23:20:22.034Z,2.63
2022-08-02T23:22:50.438Z,3.15
2022-08-02T23:25:17.603Z,4.50
2022-08-02T23:27:50.256Z,2.67
2022-08-02T23:30:17.762Z,2.80
2022-08-02T23:32:44.837Z,2.50
2022-08-02T23:35:16.949Z,2.65
2022-08-02T23:38:00.222Z,3.95
2022-08-02T23:40:39.769Z,2.97
2022-08-02T23:43:14.820Z,3.40
2022-08-02T23:45:43.446Z,3.05
2022-08-02T23:48:10.244Z,3.45
2022-08-02T23:50:37.170Z,3.00
2022-08-02T23:53:03.975Z,3.60
2022-08-02T23:55:32.145Z,3.05
2022-08-02T23:57:59.029Z,3.03
